Time;durP1;ratioP1;P1;durP2;ratioP2;P2;SDS_P1;SDS_P2;PMS_P1;PMS_P2;Temp;Humidity;BMP_temperature;BMP_pressure;BME280_temperature;BME280_humidity;BME280_pressure;Samples;Min_cycle;Max_cycle;Signal;HPM_P1;HPM_P2
2022/10/19 00:02:21;;;;;;;1.17;0.85;;;12.80;72.00;;;;;;5072660;28;20044;-66
2022/10/19 00:04:46;;;;;;;2.63;0.93;;;12.80;72.00;;;;;;5071567;28;20025;-67
2022/10/19 00:07:12;;;;;;;0.57;0.50;;;12.70;71.90;;;;;;5093916;28;20527;-69
2022/10/19 00:09:38;;;;;;;0.52;0.52;;;12.70;72.00;;;;;;5074103;28;20111;-68
2022/10/19 00:12:03;;;;;;;1.73;1.02;;;12.70;72.00;;;;;;5100362;28;20040;-68
2022/10/19 00:14:29;;;;;;;1.25;0.80;;;12.60;72.00;;;;;;5084415;28;20067;-68
2022/10/19 00:16:56;;;;;;;1.55;0.95;;;12.60;72.10;;;;;;5086181;28;20020;-69
2022/10/19 00:19:26;;;;;;;8.55;0.80;;;12.60;72.20;;;;;;5077769;28;20028;-69
2022/10/19 00:21:52;;;;;;;1.27;0.85;;;12.60;72.20;;;;;;5076797;28;20025;-66
2022/10/19 00:24:18;;;;;;;2.05;0.60;;;12.50;72.30;;;;;;5074902;28;20033;-70
2022/10/19 00:26:43;;;;;;;1.77;0.88;;;12.50;72.40;;;;;;5077877;28;20047;-69
2022/10/19 00:29:12;;;;;;;4.45;0.95;;;12.50;72.50;;;;;;5078262;28;20032;-67
2022/10/19 00:31:38;;;;;;;1.60;0.95;;;12.50;72.50;;;;;;5095561;27;20573;-67
2022/10/19 00:34:04;;;;;;;0.90;0.73;;;12.40;72.40;;;;;;5075524;28;20024;-67
2022/10/19 00:36:33;;;;;;;0.68;0.60;;;12.40;72.40;;;;;;5069552;28;20028;-67
2022/10/19 00:38:59;;;;;;;0.70;0.70;;;12.40;72.50;;;;;;5069239;28;20016;-69
2022/10/19 00:41:29;;;;;;;1.15;0.63;;;12.40;72.50;;;;;;5075161;28;20036;-69
2022/10/19 00:44:02;;;;;;;1.00;0.80;;;12.40;72.50;;;;;;5075001;28;20044;-70
2022/10/19 00:46:30;;;;;;;1.52;1.05;;;12.40;72.50;;;;;;5079715;28;20111;-70
2022/10/19 00:49:01;;;;;;;1.23;0.82;;;12.50;72.60;;;;;;5082721;28;20473;-69
2022/10/19 00:51:28;;;;;;;3.25;1.17;;;12.40;72.50;;;;;;5077788;28;20048;-69
2022/10/19 00:53:55;;;;;;;0.50;0.50;;;12.40;72.50;;;;;;5077819;28;20394;-69
2022/10/19 00:56:21;;;;;;;2.25;1.00;;;12.40;72.50;;;;;;5083708;28;20029;-69
2022/10/19 00:58:47;;;;;;;0.75;0.75;;;12.30;72.50;;;;;;5075052;28;20037;-66
2022/10/19 01:01:16;;;;;;;1.55;0.77;;;12.30;72.60;;;;;;5055195;28;20081;-69
2022/10/19 01:03:42;;;;;;;0.98;0.80;;;12.30;72.60;;;;;;5079087;28;20518;-69
2022/10/19 01:06:10;;;;;;;1.95;1.15;;;12.30;72.70;;;;;;5077058;28;20028;-69
2022/10/19 01:08:35;;;;;;;1.23;0.98;;;12.30;72.70;;;;;;5075712;28;20035;-69
2022/10/19 01:11:20;;;;;;;1.13;0.73;;;12.30;72.80;;;;;;5080062;28;21029;-68
2022/10/19 01:14:06;;;;;;;1.95;0.60;;;12.30;72.70;;;;;;5072661;28;20028;-69
2022/10/19 01:17:05;;;;;;;0.45;0.45;;;12.20;72.80;;;;;;5074275;28;20036;-68
2022/10/19 01:20:04;;;;;;;1.52;1.00;;;12.10;72.70;;;;;;5073829;28;20048;-66
2022/10/19 01:23:04;;;;;;;0.70;0.47;;;12.10;72.80;;;;;;5072233;28;20476;-66
2022/10/19 01:25:35;;;;;;;4.57;0.70;;;12.00;72.90;;;;;;5084178;28;20032;-68
2022/10/19 01:28:22;;;;;;;0.70;0.70;;;11.90;72.90;;;;;;5073647;28;20111;-68
2022/10/19 01:30:57;;;;;;;1.45;0.82;;;11.90;72.90;;;;;;5074983;28;20138;-66
2022/10/19 01:33:48;;;;;;;0.63;0.63;;;11.90;72.90;;;;;;5071426;28;20541;-66
2022/10/19 01:36:50;;;;;;;3.10;0.80;;;11.80;72.90;;;;;;5095491;28;20040;-66
2022/10/19 01:39:39;;;;;;;0.60;0.60;;;11.80;73.00;;;;;;5092596;28;20040;-68
2022/10/19 01:42:11;;;;;;;3.60;0.70;;;11.70;73.10;;;;;;5070086;28;20409;-66
2022/10/19 01:44:51;;;;;;;1.10;0.65;;;11.60;73.10;;;;;;5071337;28;20031;-65
2022/10/19 01:47:24;;;;;;;2.10;0.82;;;11.60;73.10;;;;;;5082599;28;20030;-68
2022/10/19 01:49:59;;;;;;;1.15;0.60;;;11.60;73.10;;;;;;5074635;28;20502;-69
2022/10/19 01:52:26;;;;;;;0.70;0.60;;;11.50;73.00;;;;;;5076723;28;20036;-68
2022/10/19 01:54:59;;;;;;;1.02;0.77;;;11.50;73.10;;;;;;5070732;28;20115;-66
2022/10/19 01:57:38;;;;;;;7.88;0.93;;;11.40;73.10;;;;;;5072642;28;20032;-66
2022/10/19 02:00:06;;;;;;;0.82;0.65;;;11.40;73.20;;;;;;5075516;28;20021;-66
2022/10/19 02:02:36;;;;;;;1.23;0.63;;;11.40;73.90;;;;;;5074714;28;20060;-67
2022/10/19 02:05:04;;;;;;;0.98;0.57;;;11.30;73.20;;;;;;5074893;28;20099;-67
2022/10/19 02:07:31;;;;;;;4.47;0.85;;;11.30;73.20;;;;;;5076470;28;20040;-67
2022/10/19 02:09:57;;;;;;;0.65;0.63;;;11.30;73.20;;;;;;5071959;28;20512;-67
2022/10/19 02:12:25;;;;;;;1.90;1.02;;;11.30;73.30;;;;;;5072914;28;20121;-69
2022/10/19 02:14:53;;;;;;;0.52;0.50;;;11.20;73.30;;;;;;5084526;28;20040;-67
2022/10/19 02:17:24;;;;;;;0.25;0.25;;;11.20;73.30;;;;;;5071126;28;20032;-66
2022/10/19 02:19:51;;;;;;;0.40;0.40;;;11.20;73.30;;;;;;5086053;28;20054;-68
2022/10/19 02:22:17;;;;;;;0.30;0.30;;;11.20;73.30;;;;;;5064404;28;20482;-69
2022/10/19 02:24:42;;;;;;;0.75;0.60;;;11.20;73.30;;;;;;5075968;28;20471;-69
2022/10/19 02:27:08;;;;;;;2.13;1.02;;;11.10;73.20;;;;;;5073668;28;20115;-67
2022/10/19 02:29:36;;;;;;;0.82;0.60;;;11.10;73.30;;;;;;5076756;28;20020;-69
2022/10/19 02:32:02;;;;;;;0.55;0.50;;;11.10;73.40;;;;;;5083901;28;20506;-69
2022/10/19 02:34:29;;;;;;;0.40;0.40;;;11.00;73.40;;;;;;5075001;28;20021;-69
2022/10/19 02:36:55;;;;;;;0.35;0.35;;;11.00;73.40;;;;;;5079547;28;20021;-68
2022/10/19 02:39:21;;;;;;;0.38;0.38;;;11.00;73.50;;;;;;5075466;28;20638;-69
2022/10/19 02:42:10;;;;;;;0.55;0.50;;;11.00;73.60;;;;;;5081219;28;20569;-69
2022/10/19 02:44:47;;;;;;;0.80;0.55;;;10.90;73.50;;;;;;5089871;28;20088;-68
2022/10/19 02:47:19;;;;;;;1.05;0.70;;;10.90;73.50;;;;;;5082543;28;20073;-69
2022/10/19 02:49:46;;;;;;;0.50;0.38;;;10.90;73.50;;;;;;5076363;28;20082;-69
2022/10/19 02:52:13;;;;;;;0.30;0.30;;;10.90;73.70;;;;;;5078287;28;20123;-69
2022/10/19 02:54:41;;;;;;;0.68;0.57;;;10.80;73.50;;;;;;5072590;28;20086;-69
2022/10/19 02:57:22;;;;;;;1.65;0.28;;;10.90;73.60;;;;;;5081543;28;20023;-69
2022/10/19 02:59:48;;;;;;;0.30;0.30;;;10.90;73.60;;;;;;5092360;28;20077;-68
2022/10/19 03:02:15;;;;;;;0.22;0.22;;;10.80;73.70;;;;;;5092635;28;20032;-69
2022/10/19 03:04:41;;;;;;;1.65;0.63;;;10.80;73.60;;;;;;5093045;28;20074;-68
2022/10/19 03:07:11;;;;;;;1.42;0.68;;;10.80;73.60;;;;;;5093199;28;20668;-69
2022/10/19 03:09:37;;;;;;;0.25;0.25;;;10.80;73.60;;;;;;5094187;28;20024;-69
2022/10/19 03:12:03;;;;;;;0.47;0.47;;;10.70;73.60;;;;;;5092693;28;20471;-69
2022/10/19 03:14:28;;;;;;;5.35;0.60;;;10.70;73.80;;;;;;5092599;28;20028;-69
2022/10/19 03:16:54;;;;;;;0.20;0.20;;;10.70;73.80;;;;;;5089589;28;20081;-69
2022/10/19 03:19:20;;;;;;;0.52;0.47;;;10.60;73.70;;;;;;5091566;28;20086;-68
2022/10/19 03:21:45;;;;;;;2.30;0.50;;;10.60;73.80;;;;;;5096001;28;20024;-69
2022/10/19 03:24:11;;;;;;;0.43;0.40;;;10.60;73.90;;;;;;5093319;28;20388;-69
2022/10/19 03:26:37;;;;;;;0.40;0.40;;;10.60;73.90;;;;;;5094712;28;20035;-69
2022/10/19 03:29:03;;;;;;;0.40;0.40;;;10.60;74.00;;;;;;5101525;28;20391;-69
2022/10/19 03:31:28;;;;;;;0.85;0.60;;;10.50;74.00;;;;;;5093345;28;20020;-69
2022/10/19 03:33:54;;;;;;;1.85;0.52;;;10.50;74.00;;;;;;5103030;28;20395;-69
2022/10/19 03:36:21;;;;;;;0.30;0.30;;;10.50;74.00;;;;;;5093227;28;20032;-70
2022/10/19 03:38:53;;;;;;;1.85;0.43;;;10.50;74.00;;;;;;5092736;28;20467;-69
2022/10/19 03:41:24;;;;;;;0.10;0.10;;;10.50;74.00;;;;;;5091743;28;20033;-69
2022/10/19 03:43:50;;;;;;;10.52;0.90;;;10.50;74.00;;;;;;5099310;28;20542;-69
2022/10/19 03:46:16;;;;;;;1.70;0.50;;;10.50;74.00;;;;;;5095638;28;20061;-69
2022/10/19 03:48:42;;;;;;;7.55;0.50;;;10.50;74.10;;;;;;5091579;28;20038;-69
2022/10/19 03:51:10;;;;;;;0.50;0.22;;;10.50;74.10;;;;;;5105677;28;20024;-67
2022/10/19 03:53:36;;;;;;;0.40;0.40;;;10.40;74.00;;;;;;5101062;28;20458;-67
2022/10/19 03:56:03;;;;;;;0.47;0.38;;;10.40;74.10;;;;;;5103549;28;20046;-67
2022/10/19 03:58:32;;;;;;;0.47;0.43;;;10.40;74.20;;;;;;5108791;28;20522;-69
2022/10/19 04:00:57;;;;;;;0.50;0.20;;;10.40;74.20;;;;;;5096857;28;20740;-69
2022/10/19 04:03:23;;;;;;;0.30;0.30;;;10.40;74.30;;;;;;5090841;28;20024;-69
2022/10/19 04:05:49;;;;;;;6.10;0.43;;;10.40;74.30;;;;;;5105356;28;20459;-69
2022/10/19 04:08:14;;;;;;;0.20;0.20;;;10.40;74.40;;;;;;5094635;28;20036;-69
2022/10/19 04:10:40;;;;;;;2.38;0.60;;;10.40;74.40;;;;;;5086441;28;20024;-69
2022/10/19 04:13:05;;;;;;;3.00;0.55;;;10.40;74.40;;;;;;5099607;28;20116;-69
2022/10/19 04:15:31;;;;;;;0.40;0.20;;;10.30;74.50;;;;;;5114280;28;20036;-69
2022/10/19 04:17:57;;;;;;;0.93;0.60;;;10.30;74.50;;;;;;5105140;28;20387;-67
2022/10/19 04:20:23;;;;;;;0.22;0.22;;;10.30;74.50;;;;;;5086844;28;20036;-67
2022/10/19 04:22:52;;;;;;;0.73;0.60;;;10.20;74.60;;;;;;5071779;28;20025;-67
2022/10/19 04:25:17;;;;;;;0.50;0.50;;;10.30;74.60;;;;;;5093157;28;20478;-69
2022/10/19 04:27:44;;;;;;;1.40;0.40;;;10.30;75.20;;;;;;5091219;28;20032;-69
2022/10/19 04:30:10;;;;;;;4.57;0.80;;;10.20;74.60;;;;;;5084704;28;20077;-69
2022/10/19 04:32:39;;;;;;;4.65;0.55;;;10.20;74.70;;;;;;5085486;28;20035;-69
2022/10/19 04:35:05;;;;;;;0.40;0.40;;;10.20;74.80;;;;;;5091166;28;20028;-69
2022/10/19 04:37:31;;;;;;;0.30;0.30;;;10.20;74.80;;;;;;5085561;28;20131;-69
2022/10/19 04:39:56;;;;;;;0.13;0.13;;;10.20;74.80;;;;;;5084731;28;20088;-69
2022/10/19 04:42:22;;;;;;;0.98;0.52;;;10.20;74.80;;;;;;5089327;28;20044;-69
2022/10/19 04:44:48;;;;;;;0.43;0.35;;;10.20;74.70;;;;;;5073233;28;20039;-67
2022/10/19 04:47:13;;;;;;;1.25;0.38;;;10.10;74.60;;;;;;5090295;28;20028;-69
2022/10/19 04:49:39;;;;;;;0.17;0.17;;;10.10;74.60;;;;;;5092472;28;20028;-67
2022/10/19 04:52:04;;;;;;;0.35;0.35;;;10.10;74.70;;;;;;5103167;28;20051;-67
2022/10/19 04:54:30;;;;;;;2.05;0.30;;;10.10;74.70;;;;;;5101671;28;20102;-67
2022/10/19 04:56:56;;;;;;;0.52;0.40;;;10.10;74.70;;;;;;5100558;28;20043;-68
2022/10/19 04:59:21;;;;;;;0.30;0.30;;;10.00;74.60;;;;;;5095056;28;20024;-68
2022/10/19 05:01:47;;;;;;;1.92;0.75;;;10.00;74.70;;;;;;5098260;28;20088;-67
2022/10/19 05:04:12;;;;;;;0.35;0.30;;;10.00;74.80;;;;;;5109640;28;20024;-69
2022/10/19 05:06:38;;;;;;;0.32;0.30;;;9.90;74.70;;;;;;5095300;28;20031;-68
2022/10/19 05:09:04;;;;;;;0.30;0.25;;;9.90;74.70;;;;;;5082748;28;20020;-68
2022/10/19 05:11:29;;;;;;;0.95;0.60;;;9.90;74.70;;;;;;5103283;28;20630;-68
2022/10/19 05:13:56;;;;;;;1.05;0.70;;;9.80;74.80;;;;;;5090322;28;20149;-66
2022/10/19 05:16:23;;;;;;;1.33;0.50;;;9.80;74.90;;;;;;5102700;28;20039;-68
2022/10/19 05:18:50;;;;;;;0.47;0.47;;;9.80;74.90;;;;;;5102098;28;20510;-66
2022/10/19 05:21:17;;;;;;;0.38;0.32;;;9.80;74.90;;;;;;5102718;28;20038;-66
2022/10/19 05:23:43;;;;;;;2.65;0.40;;;9.70;74.90;;;;;;5096678;28;20114;-67
2022/10/19 05:26:11;;;;;;;0.28;0.28;;;9.70;74.90;;;;;;5109255;28;20107;-67
2022/10/19 05:28:38;;;;;;;0.55;0.55;;;9.70;75.00;;;;;;5108152;28;20024;-67
2022/10/19 05:31:14;;;;;;;0.45;0.35;;;9.70;75.00;;;;;;5101216;28;20031;-67
2022/10/19 05:33:41;;;;;;;0.40;0.40;;;9.60;74.80;;;;;;5095210;28;20032;-67
2022/10/19 05:36:24;;;;;;;1.83;1.05;;;9.60;74.80;;;;;;5108063;28;20471;-67
2022/10/19 05:38:51;;;;;;;1.50;0.80;;;9.60;74.80;;;;;;5104983;28;20027;-67
2022/10/19 05:41:18;;;;;;;0.40;0.40;;;9.60;75.00;;;;;;5090699;28;20032;-69
2022/10/19 05:43:44;;;;;;;0.63;0.63;;;9.50;74.90;;;;;;5091097;28;20060;-69
2022/10/19 05:46:13;;;;;;;1.30;0.75;;;9.50;74.90;;;;;;5092541;28;20525;-69
2022/10/19 05:48:40;;;;;;;1.10;0.55;;;9.50;75.00;;;;;;5105869;28;20094;-69
2022/10/19 05:51:07;;;;;;;0.65;0.50;;;9.50;75.00;;;;;;5095017;28;20028;-69
2022/10/19 05:53:34;;;;;;;0.30;0.30;;;9.40;74.90;;;;;;5083108;28;20039;-69
2022/10/19 05:55:59;;;;;;;0.63;0.63;;;9.40;74.90;;;;;;5088617;28;20046;-69
2022/10/19 05:58:25;;;;;;;1.15;0.75;;;9.40;74.90;;;;;;5108868;28;20110;-69
2022/10/19 06:00:57;;;;;;;0.40;0.40;;;9.40;75.00;;;;;;5097778;28;20034;-69
2022/10/19 06:03:23;;;;;;;1.17;0.60;;;9.40;75.10;;;;;;5091973;28;20024;-69
2022/10/19 06:05:50;;;;;;;4.22;0.50;;;9.30;75.00;;;;;;5099112;28;20377;-69
2022/10/19 06:08:16;;;;;;;1.27;0.50;;;9.30;75.00;;;;;;5085121;28;20035;-67
2022/10/19 06:10:43;;;;;;;0.40;0.40;;;9.30;75.00;;;;;;5081451;28;20581;-67
2022/10/19 06:13:09;;;;;;;0.77;0.52;;;9.30;74.90;;;;;;5088387;28;20016;-69
2022/10/19 06:15:35;;;;;;;1.38;0.82;;;9.30;75.00;;;;;;5087865;28;20039;-67
2022/10/19 06:18:07;;;;;;;0.40;0.40;;;9.30;75.00;;;;;;5087780;28;20021;-67
2022/10/19 06:20:37;;;;;;;2.22;0.63;;;9.30;75.20;;;;;;5089224;28;20036;-67
2022/10/19 06:23:04;;;;;;;1.75;0.60;;;9.30;75.30;;;;;;5090105;28;20089;-67
2022/10/19 06:25:31;;;;;;;0.45;0.45;;;9.30;75.20;;;;;;5071689;28;20081;-67
2022/10/19 06:27:57;;;;;;;0.80;0.50;;;9.30;75.30;;;;;;5089124;28;20498;-68
2022/10/19 06:30:23;;;;;;;0.68;0.45;;;9.30;75.30;;;;;;5090954;28;20036;-67
2022/10/19 06:32:49;;;;;;;2.83;0.40;;;9.30;75.30;;;;;;5086655;28;20373;-67
2022/10/19 06:35:15;;;;;;;3.78;0.60;;;9.30;75.30;;;;;;5087358;28;20041;-67
2022/10/19 06:37:41;;;;;;;1.08;0.30;;;9.30;75.30;;;;;;5087799;28;20021;-67
2022/10/19 06:40:08;;;;;;;1.02;0.40;;;9.40;75.40;;;;;;5088001;28;20036;-69
2022/10/19 06:42:37;;;;;;;1.30;0.60;;;9.40;75.50;;;;;;5089861;28;20041;-69
2022/10/19 06:45:08;;;;;;;3.22;0.52;;;9.40;75.50;;;;;;5090361;28;20090;-67
2022/10/19 06:47:34;;;;;;;0.73;0.52;;;9.40;75.50;;;;;;5091388;28;20031;-67
2022/10/19 06:50:01;;;;;;;0.50;0.50;;;9.50;75.70;;;;;;5101309;28;20333;-67
2022/10/19 06:52:27;;;;;;;0.45;0.45;;;9.50;75.70;;;;;;5114600;28;20035;-67
2022/10/19 06:54:53;;;;;;;0.50;0.50;;;9.50;75.60;;;;;;5115714;28;20028;-69
2022/10/19 06:57:18;;;;;;;1.23;0.65;;;9.60;76.40;;;;;;5087850;28;20098;-69
2022/10/19 06:59:44;;;;;;;0.98;0.60;;;9.60;75.90;;;;;;5080192;28;20482;-69
2022/10/19 07:02:11;;;;;;;2.85;0.77;;;9.70;76.00;;;;;;5078216;28;20383;-67
2022/10/19 07:04:36;;;;;;;0.98;0.85;;;9.70;76.00;;;;;;5079904;28;20103;-67
2022/10/19 07:07:02;;;;;;;1.10;0.68;;;9.80;76.00;;;;;;5081127;28;20174;-69
2022/10/19 07:09:28;;;;;;;1.42;0.63;;;9.90;75.90;;;;;;5074369;28;20032;-67
2022/10/19 07:11:53;;;;;;;1.15;0.77;;;10.00;76.10;;;;;;5077059;28;20035;-69
2022/10/19 07:14:19;;;;;;;1.13;0.85;;;10.10;76.10;;;;;;5103130;28;20115;-68
2022/10/19 07:16:45;;;;;;;0.77;0.40;;;10.20;76.10;;;;;;5074685;28;20025;-67
2022/10/19 07:19:12;;;;;;;0.40;0.40;;;10.30;76.10;;;;;;5075347;28;20529;-67
2022/10/19 07:21:40;;;;;;;0.50;0.43;;;10.40;76.10;;;;;;5076996;28;20035;-67
2022/10/19 07:24:07;;;;;;;1.17;0.60;;;10.50;76.10;;;;;;5079280;28;20036;-67
2022/10/19 07:26:33;;;;;;;1.02;0.75;;;10.60;76.00;;;;;;5083117;28;20108;-67
2022/10/19 07:28:59;;;;;;;1.25;0.88;;;10.80;76.10;;;;;;5080066;28;20021;-67
2022/10/19 07:31:27;;;;;;;0.70;0.70;;;10.80;75.90;;;;;;5083953;28;20028;-67
2022/10/19 07:33:54;;;;;;;5.95;0.77;;;11.00;75.90;;;;;;5082687;28;20123;-67
2022/10/19 07:36:21;;;;;;;1.33;0.93;;;11.10;76.10;;;;;;5077211;28;20360;-67
2022/10/19 07:38:46;;;;;;;2.90;1.02;;;11.10;76.10;;;;;;5085029;28;20062;-67
2022/10/19 07:41:15;;;;;;;2.13;0.55;;;11.30;76.30;;;;;;5082246;28;20496;-67
2022/10/19 07:43:42;;;;;;;0.82;0.77;;;11.30;76.40;;;;;;5080561;28;20483;-68
2022/10/19 07:46:12;;;;;;;0.60;0.60;;;11.40;76.30;;;;;;5079032;28;20037;-67
2022/10/19 07:48:38;;;;;;;9.80;0.80;;;11.50;76.90;;;;;;5072097;28;20048;-67
2022/10/19 07:51:06;;;;;;;0.60;0.57;;;11.60;76.30;;;;;;5094658;28;20132;-67
2022/10/19 07:53:33;;;;;;;1.73;0.82;;;11.70;76.30;;;;;;5081957;28;20036;-66
2022/10/19 07:56:07;;;;;;;0.75;0.47;;;11.80;76.30;;;;;;5091366;28;20023;-67
2022/10/19 07:58:33;;;;;;;4.85;0.70;;;11.90;76.30;;;;;;5090379;28;20230;-67
2022/10/19 08:01:08;;;;;;;1.95;0.88;;;11.90;76.30;;;;;;5083919;28;20121;-66
2022/10/19 08:03:35;;;;;;;0.95;0.70;;;12.00;76.20;;;;;;5074837;28;20523;-67
2022/10/19 08:06:03;;;;;;;1.30;0.70;;;12.00;76.10;;;;;;5077617;28;20027;-66
2022/10/19 08:08:29;;;;;;;1.35;0.63;;;12.10;76.20;;;;;;5072355;28;20167;-66
2022/10/19 08:10:55;;;;;;;4.18;1.10;;;12.10;76.30;;;;;;5075233;28;20024;-66
2022/10/19 08:13:21;;;;;;;1.60;0.65;;;12.20;76.40;;;;;;5088218;28;20027;-66
2022/10/19 08:15:46;;;;;;;0.95;0.77;;;12.20;76.30;;;;;;5087114;28;20029;-67
2022/10/19 08:18:12;;;;;;;0.82;0.55;;;12.30;76.40;;;;;;5083668;28;20032;-67
2022/10/19 08:20:42;;;;;;;0.88;0.55;;;12.30;76.60;;;;;;5078960;28;20479;-67
2022/10/19 08:23:09;;;;;;;1.20;0.60;;;12.30;76.70;;;;;;5089047;28;20418;-67
2022/10/19 08:25:36;;;;;;;1.05;0.70;;;12.40;76.60;;;;;;5090233;28;20022;-67
2022/10/19 08:28:02;;;;;;;0.68;0.57;;;12.50;76.60;;;;;;5090216;28;20032;-68
2022/10/19 08:30:27;;;;;;;0.82;0.60;;;12.50;76.50;;;;;;5090083;28;20032;-67
2022/10/19 08:32:53;;;;;;;1.05;0.50;;;12.60;76.40;;;;;;5087237;28;20608;-67
2022/10/19 08:35:19;;;;;;;1.02;0.93;;;12.60;76.40;;;;;;5092923;28;20407;-68
2022/10/19 08:37:45;;;;;;;5.05;0.60;;;12.70;76.60;;;;;;5088716;28;20530;-68
2022/10/19 08:40:37;;;;;;;0.73;0.50;;;12.70;76.20;;;;;;5083573;28;20441;-67
2022/10/19 08:43:19;;;;;;;0.33;0.33;;;12.80;76.30;;;;;;5077947;28;20491;-68
2022/10/19 08:46:04;;;;;;;1.40;1.15;;;12.80;76.30;;;;;;5090390;28;20274;-67
2022/10/19 08:48:35;;;;;;;1.85;1.00;;;12.90;76.40;;;;;;5086951;28;20024;-67
2022/10/19 08:51:04;;;;;;;0.60;0.60;;;12.90;76.40;;;;;;5086287;28;20029;-67
2022/10/19 08:53:43;;;;;;;1.48;1.08;;;13.00;76.30;;;;;;5092693;28;20293;-68
2022/10/19 08:56:29;;;;;;;1.02;0.93;;;13.10;76.00;;;;;;5083834;28;20028;-67
2022/10/19 08:59:28;;;;;;;1.30;0.73;;;13.20;75.90;;;;;;5081796;28;20032;-67
2022/10/19 09:01:59;;;;;;;1.65;0.75;;;13.40;75.60;;;;;;5081533;28;20128;-68
2022/10/19 09:04:37;;;;;;;1.02;0.57;;;13.40;76.20;;;;;;5088886;28;20591;-69
2022/10/19 09:07:08;;;;;;;3.03;1.23;;;13.60;75.60;;;;;;5100744;28;20116;-68
2022/10/19 09:09:41;;;;;;;0.57;0.57;;;13.70;75.40;;;;;;5089356;28;20471;-68
2022/10/19 09:12:11;;;;;;;0.50;0.50;;;13.80;75.30;;;;;;5083685;28;20024;-65
2022/10/19 09:15:13;;;;;;;0.95;0.68;;;13.90;74.90;;;;;;5080811;28;20211;-68
2022/10/19 09:17:38;;;;;;;0.43;0.32;;;14.10;74.40;;;;;;5086408;28;20402;-65
2022/10/19 09:20:37;;;;;;;3.58;0.80;;;14.20;74.10;;;;;;5092860;28;20028;-66
2022/10/19 09:23:31;;;;;;;1.20;0.80;;;14.30;73.60;;;;;;5083203;28;20399;-66
2022/10/19 09:25:57;;;;;;;2.17;0.60;;;14.50;73.30;;;;;;5092247;28;20024;-67
2022/10/19 09:28:43;;;;;;;2.58;0.90;;;14.60;73.20;;;;;;5085045;28;20480;-66
2022/10/19 09:31:30;;;;;;;0.88;0.55;;;14.70;73.00;;;;;;5090020;28;20443;-66
2022/10/19 09:34:01;;;;;;;1.55;0.57;;;14.90;72.70;;;;;;5095840;28;20113;-67
2022/10/19 09:36:37;;;;;;;0.98;0.70;;;15.00;72.40;;;;;;5089872;28;20034;-67
2022/10/19 09:39:03;;;;;;;3.42;0.90;;;15.20;72.00;;;;;;5077141;28;20028;-66
2022/10/19 09:41:30;;;;;;;4.78;0.80;;;15.20;71.90;;;;;;5080467;28;20028;-66
2022/10/19 09:43:56;;;;;;;2.20;0.82;;;15.30;71.60;;;;;;5104533;28;20052;-67
2022/10/19 09:46:36;;;;;;;0.77;0.60;;;15.40;71.30;;;;;;5088845;28;20052;-67
2022/10/19 09:49:04;;;;;;;0.60;0.60;;;15.50;71.10;;;;;;5090926;28;20066;-66
2022/10/19 09:51:51;;;;;;;1.48;0.55;;;15.60;71.10;;;;;;5101044;28;20119;-67
2022/10/19 09:54:43;;;;;;;1.20;0.88;;;15.70;70.70;;;;;;5090242;28;20032;-67
2022/10/19 09:57:20;;;;;;;1.45;0.63;;;15.80;70.40;;;;;;5086522;28;20036;-67
2022/10/19 09:59:52;;;;;;;2.65;0.60;;;15.90;70.40;;;;;;5088728;28;20043;-67
2022/10/19 10:02:20;;;;;;;0.35;0.35;;;16.10;70.30;;;;;;5090085;28;20114;-67
2022/10/19 10:05:02;;;;;;;0.90;0.70;;;16.20;69.90;;;;;;5089633;28;20048;-67
2022/10/19 10:07:36;;;;;;;0.68;0.60;;;16.30;69.50;;;;;;5088970;28;20031;-66
2022/10/19 10:10:09;;;;;;;2.35;0.90;;;16.40;69.20;;;;;;5090147;28;20016;-67
2022/10/19 10:12:36;;;;;;;0.32;0.32;;;16.50;68.90;;;;;;5089982;28;20410;-67
2022/10/19 10:15:04;;;;;;;1.70;0.68;;;16.50;68.80;;;;;;5086828;28;20542;-67
2022/10/19 10:17:30;;;;;;;1.48;0.52;;;16.50;68.40;;;;;;5088537;28;20483;-67
2022/10/19 10:19:59;;;;;;;0.75;0.75;;;16.40;68.10;;;;;;5090897;28;20024;-66
2022/10/19 10:22:33;;;;;;;0.50;0.50;;;16.30;68.30;;;;;;5093371;28;20028;-67
2022/10/19 10:25:00;;;;;;;1.35;0.60;;;16.40;68.20;;;;;;5104735;28;20016;-66
2022/10/19 10:27:36;;;;;;;1.17;0.70;;;16.40;67.90;;;;;;5092778;28;20028;-66
2022/10/19 10:30:08;;;;;;;2.53;0.73;;;16.50;67.40;;;;;;5093262;28;20020;-67
2022/10/19 10:32:38;;;;;;;1.45;0.68;;;16.60;67.30;;;;;;5093013;28;20024;-67
2022/10/19 10:35:15;;;;;;;0.47;0.47;;;16.70;67.00;;;;;;5091215;28;20051;-66
2022/10/19 10:37:43;;;;;;;1.10;0.70;;;16.90;66.70;;;;;;5092859;28;20028;-66
2022/10/19 10:40:26;;;;;;;0.80;0.80;;;16.90;66.10;;;;;;5093151;28;20052;-67
2022/10/19 10:42:56;;;;;;;0.63;0.55;;;16.80;65.60;;;;;;5093371;28;20048;-67
2022/10/19 10:45:29;;;;;;;0.50;0.50;;;16.90;65.70;;;;;;5093310;28;20071;-67
2022/10/19 10:47:56;;;;;;;0.70;0.60;;;17.00;65.10;;;;;;5092651;28;20440;-67
2022/10/19 10:50:26;;;;;;;1.38;0.60;;;17.10;65.00;;;;;;5103682;28;20051;-67
2022/10/19 10:53:04;;;;;;;1.58;0.68;;;17.30;64.50;;;;;;5113685;28;20126;-67
2022/10/19 10:55:31;;;;;;;0.60;0.50;;;17.50;63.90;;;;;;5113535;28;20027;-67
2022/10/19 10:58:20;;;;;;;0.57;0.52;;;17.70;63.60;;;;;;5098544;28;20057;-67
2022/10/19 11:00:49;;;;;;;0.57;0.50;;;17.90;63.50;;;;;;5113109;28;20044;-66
2022/10/19 11:03:24;;;;;;;0.40;0.40;;;18.00;62.90;;;;;;5112570;28;20035;-66
2022/10/19 11:05:59;;;;;;;1.88;0.95;;;18.20;62.40;;;;;;5112253;28;20054;-66
2022/10/19 11:09:10;;;;;;;0.50;0.50;;;18.30;61.90;;;;;;5113203;28;20027;-66
2022/10/19 11:11:40;;;;;;;0.63;0.47;;;18.30;61.50;;;;;;5049926;28;20539;-67
2022/10/19 11:14:22;;;;;;;0.40;0.40;;;18.20;61.40;;;;;;5050598;28;20559;-67
2022/10/19 11:16:51;;;;;;;1.40;0.52;;;18.20;61.60;;;;;;5090644;28;20122;-68
2022/10/19 11:19:38;;;;;;;0.40;0.40;;;18.20;61.60;;;;;;5113215;28;20031;-67
2022/10/19 11:22:15;;;;;;;1.77;0.38;;;18.30;61.60;;;;;;5113153;28;20023;-67
2022/10/19 11:25:05;;;;;;;0.45;0.45;;;18.40;61.10;;;;;;5100836;28;20071;-67
2022/10/19 11:27:57;;;;;;;1.20;0.50;;;18.50;60.90;;;;;;5102302;28;20028;-68
2022/10/19 11:30:24;;;;;;;0.52;0.50;;;18.60;60.60;;;;;;5087821;28;20036;-68
2022/10/19 11:33:34;;;;;;;1.85;0.45;;;18.80;60.10;;;;;;5110436;28;20471;-67
2022/10/19 11:36:09;;;;;;;3.53;0.77;;;19.00;59.60;;;;;;5077038;28;20115;-66
2022/10/19 11:38:40;;;;;;;0.80;0.80;;;19.00;59.40;;;;;;5112524;28;20035;-66
2022/10/19 11:41:38;;;;;;;1.05;0.40;;;19.20;59.30;;;;;;5112767;28;20019;-66
2022/10/19 11:44:32;;;;;;;1.17;0.32;;;19.40;59.10;;;;;;5112394;28;20068;-67
2022/10/19 11:47:17;;;;;;;0.40;0.40;;;19.20;58.50;;;;;;5083226;28;20043;-67
2022/10/19 11:49:54;;;;;;;0.50;0.40;;;19.10;58.80;;;;;;5111664;28;20531;-66
2022/10/19 11:52:26;;;;;;;1.05;0.70;;;19.00;59.00;;;;;;5112212;28;20090;-66
2022/10/19 11:55:25;;;;;;;1.20;0.63;;;19.10;58.70;;;;;;5112266;28;20442;-66
2022/10/19 11:58:09;;;;;;;0.50;0.50;;;19.00;58.10;;;;;;5111738;28;20505;-66
2022/10/19 12:00:46;;;;;;;0.57;0.57;;;19.10;57.90;;;;;;5112090;28;20027;-66
2022/10/19 12:03:40;;;;;;;1.15;0.50;;;19.10;57.50;;;;;;5083043;28;20031;-66
2022/10/19 12:06:46;;;;;;;0.82;0.50;;;19.30;57.30;;;;;;5111275;28;20023;-66
2022/10/19 12:09:15;;;;;;;0.55;0.40;;;19.30;57.00;;;;;;5090513;28;20067;-66
2022/10/19 12:11:46;;;;;;;1.50;0.45;;;19.50;56.70;;;;;;5111807;28;20314;-66
2022/10/19 12:14:17;;;;;;;0.40;0.40;;;19.50;56.60;;;;;;5111794;28;20032;-66
2022/10/19 12:16:48;;;;;;;1.45;0.50;;;19.60;56.20;;;;;;5109166;28;20015;-66
2022/10/19 12:19:20;;;;;;;0.57;0.50;;;19.80;56.30;;;;;;5111406;28;20030;-67
2022/10/19 12:21:46;;;;;;;0.30;0.30;;;20.00;55.80;;;;;;5111675;28;20050;-67
2022/10/19 12:24:22;;;;;;;2.47;1.45;;;20.40;55.20;;;;;;5112031;28;20108;-67
2022/10/19 12:26:50;;;;;;;0.77;0.50;;;21.10;54.10;;;;;;5110888;28;20020;-67
2022/10/19 12:29:32;;;;;;;0.55;0.40;;;22.40;51.50;;;;;;5101842;28;20024;-68
2022/10/19 12:31:59;;;;;;;1.65;0.47;;;23.80;49.20;;;;;;5109984;28;20027;-68
2022/10/19 12:34:51;;;;;;;0.40;0.40;;;25.50;46.00;;;;;;5101084;28;20022;-67
2022/10/19 12:37:41;;;;;;;1.55;0.57;;;27.00;44.00;;;;;;5086597;28;20401;-67
2022/10/19 12:40:35;;;;;;;0.43;0.43;;;28.10;41.70;;;;;;5082874;28;20020;-68
2022/10/19 12:43:12;;;;;;;0.80;0.43;;;28.60;40.40;;;;;;5084118;28;20555;-67
2022/10/19 12:46:12;;;;;;;0.68;0.55;;;28.30;39.70;;;;;;5090087;28;20028;-67
2022/10/19 12:48:38;;;;;;;0.57;0.50;;;27.40;40.20;;;;;;5090952;28;20054;-66
2022/10/19 12:51:14;;;;;;;0.52;0.50;;;26.60;41.90;;;;;;5086860;28;20110;-67
2022/10/19 12:53:47;;;;;;;0.40;0.40;;;26.60;42.60;;;;;;5110512;28;20106;-66
2022/10/19 12:56:19;;;;;;;2.40;0.55;;;26.20;41.90;;;;;;5096347;28;20106;-66
2022/10/19 12:58:55;;;;;;;1.33;0.52;;;25.30;42.90;;;;;;5111598;28;20092;-67
2022/10/19 13:01:28;;;;;;;0.28;0.28;;;24.20;44.30;;;;;;5109787;28;20016;-67
2022/10/19 13:04:09;;;;;;;1.20;0.60;;;23.20;45.80;;;;;;5106978;28;20055;-67
2022/10/19 13:06:39;;;;;;;1.98;0.40;;;22.50;47.50;;;;;;5104393;28;20024;-66
2022/10/19 13:09:08;;;;;;;0.80;0.60;;;22.00;48.60;;;;;;5100277;28;20047;-67
2022/10/19 13:11:37;;;;;;;1.75;0.55;;;22.30;49.20;;;;;;5092099;28;20020;-66